AUA730 LQSA-LOWW
Flight info
| Callsign | AUA730 |
|---|---|
| Flight time | N/A |
| Altitude | 36000 |
| Route | BOSNA DCT IRDIV DCT NOVLO DCT ZAG DCT OBUTI OBUTI2W |
| Aircraft | E195/M-SDE3GILORVW/S |
Departure
| Time | 2026-05-05 09:43 |
|---|---|
| Airport | Sarajevo International Airport (LQSA) |
Arrival
| Time | N/A |
|---|---|
| Airport | Vienna International Airport (LOWW) |
| Time | Latitude | Longitude | Altitude | Speed | Heading |
|---|---|---|---|---|---|
| 2026-05-05 09:12 | 43.82560 | 18.33562 | 1685 ft | 0 kts | 27° |
| 2026-05-05 09:34 | 43.82551 | 18.33555 | 1685 ft | 3 kts | 30° |
| 2026-05-05 09:34 | 43.82533 | 18.33541 | 1688 ft | 3 kts | 34° |
| 2026-05-05 09:34 | 43.82517 | 18.33524 | 1685 ft | 3 kts | 49° |
| 2026-05-05 09:34 | 43.82507 | 18.33504 | 1685 ft | 3 kts | 90° |
| 2026-05-05 09:35 | 43.82508 | 18.33492 | 1685 ft | 3 kts | 117° |
| 2026-05-05 09:37 | 43.82502 | 18.33507 | 1685 ft | 3 kts | 117° |
| 2026-05-05 09:37 | 43.82489 | 18.33542 | 1685 ft | 5 kts | 117° |
| 2026-05-05 09:38 | 43.82467 | 18.33601 | 1691 ft | 8 kts | 117° |
| 2026-05-05 09:38 | 43.82436 | 18.33683 | 1687 ft | 10 kts | 117° |
| 2026-05-05 09:38 | 43.82401 | 18.33777 | 1685 ft | 11 kts | 117° |
| 2026-05-05 09:38 | 43.82368 | 18.33867 | 1693 ft | 10 kts | 117° |
| 2026-05-05 09:39 | 43.82339 | 18.33946 | 1693 ft | 8 kts | 118° |
| 2026-05-05 09:39 | 43.82319 | 18.33997 | 1696 ft | 4 kts | 118° |
| 2026-05-05 09:39 | 43.82304 | 18.34037 | 1696 ft | 6 kts | 118° |
| 2026-05-05 09:39 | 43.82278 | 18.34105 | 1698 ft | 10 kts | 118° |
| 2026-05-05 09:40 | 43.82241 | 18.34205 | 1701 ft | 13 kts | 117° |
| 2026-05-05 09:40 | 43.82192 | 18.34335 | 1707 ft | 17 kts | 117° |
| 2026-05-05 09:40 | 43.82138 | 18.34477 | 1709 ft | 16 kts | 117° |
| 2026-05-05 09:40 | 43.82081 | 18.34600 | 1712 ft | 14 kts | 142° |
| 2026-05-05 09:41 | 43.82047 | 18.34622 | 1713 ft | 0 kts | 162° |
| 2026-05-05 09:41 | 43.82045 | 18.34623 | 1713 ft | 2 kts | 164° |
| 2026-05-05 09:41 | 43.82019 | 18.34627 | 1714 ft | 6 kts | 181° |
| 2026-05-05 09:42 | 43.81971 | 18.34604 | 1715 ft | 9 kts | 211° |
| 2026-05-05 09:42 | 43.81946 | 18.34516 | 1713 ft | 12 kts | 294° |
| 2026-05-05 09:42 | 43.81955 | 18.34493 | 1712 ft | 13 kts | 298° |
| 2026-05-05 09:42 | 43.82128 | 18.34028 | 1706 ft | 94 kts | 297° |
| 2026-05-05 09:43 | 43.82537 | 18.32928 | 1690 ft | 162 kts | 296° |
| 2026-05-05 09:43 | 43.83124 | 18.31442 | 2165 ft | 190 kts | 297° |
| 2026-05-05 09:43 | 43.83829 | 18.29913 | 3276 ft | 180 kts | 303° |
| 2026-05-05 09:43 | 43.84612 | 18.28476 | 3946 ft | 207 kts | 306° |
| 2026-05-05 09:44 | 43.84939 | 18.26410 | 4063 ft | 236 kts | 240° |
| 2026-05-05 09:44 | 43.83575 | 18.26567 | 3317 ft | 286 kts | 121° |
| 2026-05-05 09:44 | 43.83575 | 18.29214 | 4004 ft | 238 kts | 66° |